createdAt,value
2022-09-25T00:01:15.222Z,11.03
2022-09-25T00:03:42.264Z,10.63
2022-09-25T00:06:14.844Z,9.43
2022-09-25T00:08:41.866Z,10.57
2022-09-25T00:11:12.545Z,10.47
2022-09-25T00:13:41.178Z,12.70
2022-09-25T00:16:24.846Z,12.63
2022-09-25T00:19:10.686Z,9.00
2022-09-25T00:21:38.512Z,11.63
2022-09-25T00:24:09.607Z,11.50
2022-09-25T00:26:40.972Z,12.53
2022-09-25T00:29:09.167Z,10.70
2022-09-25T00:31:37.296Z,10.83
2022-09-25T00:34:05.995Z,13.03
2022-09-25T00:36:35.284Z,10.27
2022-09-25T00:39:03.024Z,13.77
2022-09-25T00:41:33.581Z,11.60
2022-09-25T00:44:04.043Z,12.53
2022-09-25T00:46:42.536Z,12.27
2022-09-25T00:49:20.052Z,11.80
2022-09-25T00:51:56.450Z,12.70
2022-09-25T00:54:30.213Z,11.00
2022-09-25T00:56:59.405Z,11.67
2022-09-25T00:59:33.417Z,13.57
2022-09-25T01:02:02.402Z,13.17
2022-09-25T01:04:34.815Z,13.17
2022-09-25T01:07:02.114Z,14.80
2022-09-25T01:09:29.821Z,14.83
2022-09-25T01:11:56.868Z,12.90
2022-09-25T01:14:26.888Z,13.37
2022-09-25T01:17:05.459Z,14.97
2022-09-25T01:20:02.580Z,11.67
2022-09-25T01:22:55.521Z,13.87
2022-09-25T01:25:44.969Z,13.70
2022-09-25T01:28:40.799Z,13.73
2022-09-25T01:31:19.790Z,13.33
2022-09-25T01:33:56.028Z,12.43
2022-09-25T01:36:35.897Z,12.10
2022-09-25T01:39:16.722Z,15.10
2022-09-25T01:42:01.587Z,16.07
2022-09-25T01:44:34.440Z,16.33
2022-09-25T01:47:19.111Z,17.23
2022-09-25T01:49:55.449Z,12.07
2022-09-25T01:52:33.916Z,12.23
2022-09-25T01:55:11.421Z,12.20
2022-09-25T01:57:44.127Z,10.30
2022-09-25T02:00:19.644Z,11.30
2022-09-25T02:02:56.050Z,11.60
2022-09-25T02:05:50.684Z,11.47
2022-09-25T02:08:23.669Z,11.33
2022-09-25T02:10:55.944Z,11.10
2022-09-25T02:13:26.332Z,12.00
2022-09-25T02:16:17.433Z,11.13
2022-09-25T02:19:05.689Z,10.00
2022-09-25T02:21:50.504Z,10.57
2022-09-25T02:24:48.033Z,11.27
2022-09-25T02:27:15.945Z,11.37
2022-09-25T02:29:43.117Z,10.47
2022-09-25T02:32:17.786Z,10.83
2022-09-25T02:34:44.831Z,11.53
2022-09-25T02:37:14.165Z,11.37
2022-09-25T02:39:42.824Z,12.17
2022-09-25T02:42:33.703Z,11.93
2022-09-25T02:45:15.607Z,11.40
2022-09-25T02:48:00.654Z,11.13
2022-09-25T02:50:37.921Z,11.43
2022-09-25T02:53:29.216Z,12.23
2022-09-25T02:56:14.473Z,10.50
2022-09-25T02:58:53.287Z,14.10
2022-09-25T03:01:24.429Z,11.23
2022-09-25T03:03:58.872Z,12.80
2022-09-25T03:06:28.165Z,10.53
2022-09-25T03:08:56.807Z,13.57
2022-09-25T03:11:29.646Z,12.13
2022-09-25T03:13:58.121Z,11.90
2022-09-25T03:16:40.436Z,11.13
2022-09-25T03:19:08.112Z,12.80
2022-09-25T03:21:34.856Z,12.30
2022-09-25T03:24:01.811Z,13.27
2022-09-25T03:26:32.071Z,13.20
2022-09-25T03:29:02.092Z,12.17
2022-09-25T03:31:33.570Z,13.63
2022-09-25T03:34:04.307Z,11.03
2022-09-25T03:36:31.489Z,17.17
2022-09-25T03:39:01.751Z,13.33
2022-09-25T03:41:34.583Z,13.33
2022-09-25T03:44:01.798Z,10.10
2022-09-25T03:46:35.362Z,11.80
2022-09-25T03:49:04.600Z,12.63
2022-09-25T03:51:36.523Z,10.53
2022-09-25T03:54:04.824Z,12.40
2022-09-25T03:56:33.244Z,12.83
2022-09-25T03:59:00.219Z,13.00
2022-09-25T04:01:29.531Z,12.00
2022-09-25T04:03:57.289Z,12.37
2022-09-25T04:06:26.443Z,14.43
2022-09-25T04:08:54.319Z,11.07
2022-09-25T04:11:23.201Z,12.20
2022-09-25T04:13:50.392Z,14.83
2022-09-25T04:16:17.726Z,11.97
2022-09-25T04:18:44.681Z,13.13
2022-09-25T04:21:13.575Z,12.10
2022-09-25T04:23:41.314Z,12.23
2022-09-25T04:26:09.376Z,12.77
2022-09-25T04:28:37.109Z,12.80
2022-09-25T04:31:04.653Z,13.93
2022-09-25T04:33:47.427Z,13.13
2022-09-25T04:36:15.908Z,13.07
2022-09-25T04:38:42.729Z,13.73
2022-09-25T04:41:09.510Z,15.20
2022-09-25T04:43:36.298Z,14.80
2022-09-25T04:46:08.718Z,14.17
2022-09-25T04:48:35.957Z,13.97
2022-09-25T04:51:04.235Z,13.40
2022-09-25T04:53:32.712Z,15.33
2022-09-25T04:56:13.985Z,13.07
2022-09-25T04:58:50.135Z,13.00
2022-09-25T05:01:19.417Z,13.20
2022-09-25T05:03:50.541Z,14.93
2022-09-25T05:06:17.370Z,13.67
2022-09-25T05:08:44.003Z,14.77
2022-09-25T05:11:11.401Z,15.70
2022-09-25T05:13:38.337Z,17.60
2022-09-25T05:16:05.324Z,18.50
2022-09-25T05:18:32.126Z,17.33
2022-09-25T05:21:04.159Z,17.30
2022-09-25T05:23:30.930Z,15.33
2022-09-25T05:26:03.759Z,15.37
2022-09-25T05:28:33.903Z,15.10
2022-09-25T05:31:04.953Z,13.07
2022-09-25T05:33:32.873Z,12.63
2022-09-25T05:36:04.248Z,13.37
2022-09-25T05:38:35.836Z,13.00
2022-09-25T05:41:07.495Z,14.53
2022-09-25T05:43:40.074Z,13.33
2022-09-25T05:46:07.562Z,14.63
2022-09-25T05:48:34.409Z,14.37
2022-09-25T05:51:01.512Z,15.63
2022-09-25T05:53:28.907Z,15.03
2022-09-25T05:55:59.059Z,14.63
2022-09-25T05:58:27.325Z,15.33
2022-09-25T06:00:54.943Z,14.77
2022-09-25T06:03:21.959Z,15.20
2022-09-25T06:05:48.853Z,16.03
2022-09-25T06:08:15.634Z,14.20
2022-09-25T06:10:42.607Z,12.47
2022-09-25T06:13:09.362Z,13.03
2022-09-25T06:15:39.191Z,12.70
2022-09-25T06:18:07.952Z,11.63
2022-09-25T06:20:35.914Z,11.43
2022-09-25T06:23:04.486Z,13.53
2022-09-25T06:25:40.872Z,12.73
2022-09-25T06:28:08.452Z,12.90
2022-09-25T06:30:36.941Z,11.57
2022-09-25T06:33:07.296Z,12.73
2022-09-25T06:35:41.177Z,11.17
2022-09-25T06:38:12.331Z,11.53
2022-09-25T06:40:41.497Z,11.67
2022-09-25T06:43:15.301Z,12.33
2022-09-25T06:45:43.119Z,10.73
2022-09-25T06:48:13.071Z,11.93
2022-09-25T06:50:42.957Z,11.13
2022-09-25T06:53:11.450Z,11.07
2022-09-25T06:55:38.940Z,9.53
2022-09-25T06:58:08.320Z,10.20
2022-09-25T07:00:35.239Z,9.47
2022-09-25T07:03:20.642Z,10.73
2022-09-25T07:05:48.326Z,12.13
2022-09-25T07:08:18.532Z,11.93
2022-09-25T07:10:53.811Z,12.77
2022-09-25T07:13:25.910Z,9.80
2022-09-25T07:15:57.104Z,10.73
2022-09-25T07:18:25.338Z,11.13
2022-09-25T07:20:52.909Z,10.63
2022-09-25T07:23:21.402Z,10.43
2022-09-25T07:25:49.694Z,11.17
2022-09-25T07:28:18.949Z,10.07
2022-09-25T07:30:46.987Z,8.87
2022-09-25T07:33:13.779Z,9.27
2022-09-25T07:35:40.992Z,10.90
2022-09-25T07:38:07.905Z,10.40
2022-09-25T07:40:35.388Z,10.87
2022-09-25T07:43:03.500Z,11.53
2022-09-25T07:45:31.255Z,9.13
2022-09-25T07:48:00.699Z,8.87
2022-09-25T07:50:32.230Z,9.40
2022-09-25T07:52:59.138Z,9.00
2022-09-25T07:55:28.087Z,9.03
2022-09-25T07:57:58.414Z,8.47
2022-09-25T08:00:25.391Z,8.47
2022-09-25T08:02:59.490Z,7.77
2022-09-25T08:05:27.512Z,9.20
2022-09-25T08:07:54.950Z,9.60
2022-09-25T08:10:22.234Z,8.87
2022-09-25T08:12:49.728Z,9.20
2022-09-25T08:15:16.718Z,12.17
2022-09-25T08:17:43.475Z,10.70
2022-09-25T08:20:10.954Z,13.47
2022-09-25T08:22:37.774Z,11.60
2022-09-25T08:25:04.973Z,11.00
2022-09-25T08:27:32.158Z,13.27
2022-09-25T08:29:58.863Z,12.20
2022-09-25T08:32:25.835Z,12.17
2022-09-25T08:34:52.897Z,11.37
2022-09-25T08:37:21.018Z,11.67
2022-09-25T08:39:47.833Z,12.17
2022-09-25T08:42:26.153Z,11.37
2022-09-25T08:45:21.625Z,12.50
2022-09-25T08:48:11.260Z,10.83
2022-09-25T08:50:38.136Z,14.00
2022-09-25T08:53:11.463Z,14.17
2022-09-25T08:55:59.876Z,12.83
2022-09-25T08:58:31.938Z,11.27
2022-09-25T09:01:06.380Z,11.83
2022-09-25T09:03:40.536Z,11.67
2022-09-25T09:06:12.251Z,13.20
2022-09-25T09:08:40.772Z,9.93
2022-09-25T09:11:13.883Z,10.47
2022-09-25T09:13:53.076Z,11.10
2022-09-25T09:16:22.787Z,11.57
2022-09-25T09:18:50.240Z,10.97
2022-09-25T09:21:52.535Z,8.90
2022-09-25T09:24:31.294Z,10.73
2022-09-25T09:27:19.981Z,8.23
2022-09-25T09:30:13.138Z,8.30
2022-09-25T09:33:11.303Z,8.23
2022-09-25T09:35:43.527Z,7.03
2022-09-25T09:38:28.422Z,5.50
2022-09-25T09:41:33.727Z,7.30
2022-09-25T09:44:03.272Z,6.50
2022-09-25T09:46:30.112Z,6.43
2022-09-25T09:49:04.640Z,6.43
2022-09-25T09:51:40.924Z,5.63
2022-09-25T09:54:16.260Z,6.43
2022-09-25T09:56:50.282Z,6.80
2022-09-25T09:59:27.520Z,7.60
2022-09-25T10:02:24.720Z,4.57
2022-09-25T10:04:53.960Z,3.53
2022-09-25T10:07:23.104Z,3.93
2022-09-25T10:09:50.695Z,4.07
2022-09-25T10:12:35.252Z,4.10
2022-09-25T10:15:07.510Z,3.10
2022-09-25T10:17:37.866Z,2.47
2022-09-25T10:20:15.516Z,3.40
2022-09-25T10:22:46.249Z,2.40
2022-09-25T10:25:13.508Z,2.00
2022-09-25T10:27:45.942Z,6.33
2022-09-25T10:30:20.272Z,6.93
2022-09-25T10:33:15.666Z,1.20
2022-09-25T10:35:45.950Z,1.50
2022-09-25T10:38:29.789Z,1.67
2022-09-25T10:41:19.848Z,1.13
2022-09-25T10:44:01.175Z,0.93
2022-09-25T10:46:52.649Z,0.93
2022-09-25T10:49:43.561Z,1.20
2022-09-25T10:52:15.403Z,2.60
2022-09-25T10:54:45.752Z,1.87
2022-09-25T10:57:25.462Z,1.67
2022-09-25T10:59:53.077Z,2.43
2022-09-25T11:02:41.477Z,1.40
2022-09-25T11:05:18.144Z,1.97
2022-09-25T11:07:52.468Z,1.93
2022-09-25T11:10:28.013Z,3.00
2022-09-25T11:12:56.629Z,2.13
2022-09-25T11:15:27.332Z,2.47
2022-09-25T11:17:56.591Z,1.93
2022-09-25T11:20:29.625Z,1.90
2022-09-25T11:23:05.914Z,1.60
2022-09-25T11:25:49.250Z,1.70
2022-09-25T11:28:34.952Z,2.40
2022-09-25T11:31:14.792Z,1.77
2022-09-25T11:34:00.820Z,2.10
2022-09-25T11:36:59.607Z,1.93
2022-09-25T11:40:23.240Z,1.67
2022-09-25T11:43:04.525Z,1.50
2022-09-25T11:45:54.256Z,1.93
2022-09-25T11:48:35.115Z,1.30
2022-09-25T11:51:19.652Z,1.40
2022-09-25T11:54:33.234Z,1.13
2022-09-25T11:57:11.655Z,1.10
2022-09-25T12:00:03.690Z,1.13
2022-09-25T12:02:50.680Z,1.10
2022-09-25T12:05:36.076Z,1.23
2022-09-25T12:08:16.122Z,1.53
2022-09-25T12:11:08.017Z,1.20
2022-09-25T12:13:54.480Z,2.57
2022-09-25T12:17:00.882Z,2.20
2022-09-25T12:20:11.599Z,2.67
2022-09-25T12:22:50.043Z,2.90
2022-09-25T12:25:26.563Z,2.40
2022-09-25T12:28:12.801Z,5.37
2022-09-25T12:31:06.039Z,5.73
2022-09-25T12:34:14.781Z,4.20
2022-09-25T12:36:47.926Z,3.00
2022-09-25T12:39:41.223Z,2.67
2022-09-25T12:42:17.298Z,1.77
2022-09-25T12:44:55.785Z,1.93
2022-09-25T12:47:29.375Z,2.43
2022-09-25T12:50:29.115Z,2.83
2022-09-25T12:53:05.752Z,2.13
2022-09-25T12:55:42.672Z,2.20
2022-09-25T12:58:18.542Z,3.43
2022-09-25T13:00:49.581Z,2.40
2022-09-25T13:03:23.841Z,2.10
2022-09-25T13:06:00.515Z,2.77
2022-09-25T13:09:12.319Z,3.70
2022-09-25T13:11:47.962Z,2.90
2022-09-25T13:14:34.509Z,3.67
2022-09-25T13:17:02.168Z,2.77
2022-09-25T13:19:33.226Z,2.70
2022-09-25T13:22:04.196Z,3.50
2022-09-25T13:24:39.266Z,3.43
2022-09-25T13:27:15.824Z,2.20
2022-09-25T13:29:43.209Z,3.47
2022-09-25T13:32:17.424Z,3.77
2022-09-25T13:34:44.816Z,3.53
2022-09-25T13:37:13.675Z,6.73
2022-09-25T13:40:07.814Z,12.77
2022-09-25T13:42:38.168Z,6.33
2022-09-25T13:45:29.963Z,5.93
2022-09-25T13:48:32.699Z,5.83
2022-09-25T13:51:35.666Z,4.20
2022-09-25T13:54:27.139Z,5.70
2022-09-25T13:56:54.993Z,5.27
2022-09-25T13:59:37.170Z,13.60
2022-09-25T14:02:38.473Z,3.80
2022-09-25T14:05:05.971Z,4.47
2022-09-25T14:07:33.980Z,4.93
2022-09-25T14:10:03.451Z,5.80
2022-09-25T14:12:57.311Z,4.50
2022-09-25T14:15:35.474Z,6.10
2022-09-25T14:18:09.870Z,5.27
2022-09-25T14:20:45.594Z,4.13
2022-09-25T14:23:14.056Z,4.20
2022-09-25T14:25:44.636Z,5.93
2022-09-25T14:28:21.950Z,6.10
2022-09-25T14:31:07.274Z,4.10
2022-09-25T14:33:50.804Z,5.77
2022-09-25T14:36:49.408Z,4.57
2022-09-25T14:39:37.494Z,4.70
2022-09-25T14:42:24.973Z,3.10
2022-09-25T14:45:06.210Z,2.23
2022-09-25T14:47:38.581Z,2.97
2022-09-25T14:50:06.806Z,3.47
2022-09-25T14:52:36.252Z,10.00
2022-09-25T14:55:04.380Z,4.60
2022-09-25T14:57:35.407Z,4.80
2022-09-25T15:00:06.731Z,2.70
2022-09-25T15:02:40.938Z,3.23
2022-09-25T15:05:45.348Z,3.10
2022-09-25T15:08:44.774Z,4.30
2022-09-25T15:11:16.718Z,8.20
2022-09-25T15:13:45.064Z,4.03
2022-09-25T15:16:33.831Z,5.37
2022-09-25T15:19:03.423Z,3.13
2022-09-25T15:21:32.264Z,2.60
2022-09-25T15:24:04.992Z,5.50
2022-09-25T15:26:33.573Z,5.80
2022-09-25T15:29:01.573Z,7.73
2022-09-25T15:31:37.163Z,2.77
2022-09-25T15:34:12.004Z,5.07
2022-09-25T15:36:38.829Z,4.57
2022-09-25T15:39:17.836Z,6.40
2022-09-25T15:41:45.021Z,8.23
2022-09-25T15:44:13.564Z,7.33
2022-09-25T15:46:44.908Z,5.57
2022-09-25T15:49:19.947Z,6.07
2022-09-25T15:52:00.250Z,3.97
2022-09-25T15:54:29.880Z,4.13
2022-09-25T15:56:58.257Z,4.67
2022-09-25T15:59:26.967Z,4.73
2022-09-25T16:02:14.793Z,5.10
2022-09-25T16:04:50.516Z,6.67
2022-09-25T16:07:37.458Z,7.40
2022-09-25T16:10:12.042Z,8.77
2022-09-25T16:12:44.457Z,7.87
2022-09-25T16:15:27.637Z,7.17
2022-09-25T16:18:15.746Z,5.33
2022-09-25T16:20:43.548Z,5.50
2022-09-25T16:23:31.311Z,5.67
2022-09-25T16:25:59.093Z,5.33
2022-09-25T16:28:28.771Z,5.37
2022-09-25T16:30:55.433Z,5.70
2022-09-25T16:33:26.806Z,4.80
2022-09-25T16:36:12.850Z,5.40
2022-09-25T16:39:02.422Z,4.63
2022-09-25T16:41:30.048Z,4.30
2022-09-25T16:44:14.871Z,4.87
2022-09-25T16:46:44.698Z,6.53
2022-09-25T16:49:12.741Z,6.47
2022-09-25T16:51:45.862Z,12.97
2022-09-25T16:54:15.634Z,14.17
2022-09-25T16:56:44.082Z,5.30
2022-09-25T16:59:23.394Z,8.93
2022-09-25T17:01:53.674Z,11.17
2022-09-25T17:04:29.521Z,10.70
2022-09-25T17:07:01.070Z,9.90
2022-09-25T17:09:31.388Z,7.23
2022-09-25T17:12:07.298Z,9.90
2022-09-25T17:14:34.693Z,5.30
2022-09-25T17:17:01.655Z,24.70
2022-09-25T17:19:29.484Z,27.40
2022-09-25T17:21:57.817Z,11.07
2022-09-25T17:24:27.287Z,10.73
2022-09-25T17:26:54.526Z,14.23
2022-09-25T17:29:22.563Z,35.63
2022-09-25T17:31:51.429Z,9.57
2022-09-25T17:34:24.798Z,10.53
2022-09-25T17:36:52.009Z,14.67
2022-09-25T17:39:20.289Z,13.40
2022-09-25T17:41:47.260Z,14.13
2022-09-25T17:44:18.483Z,14.57
2022-09-25T17:46:45.513Z,12.60
2022-09-25T17:49:12.511Z,11.30
2022-09-25T17:51:41.822Z,13.60
2022-09-25T17:54:09.887Z,12.63
2022-09-25T17:56:37.721Z,12.73
2022-09-25T17:59:05.849Z,9.67
2022-09-25T18:01:39.083Z,10.43
2022-09-25T18:04:24.442Z,12.93
2022-09-25T18:06:52.015Z,9.20
2022-09-25T18:09:21.345Z,13.43
2022-09-25T18:11:48.716Z,10.57
2022-09-25T18:14:16.002Z,13.50
2022-09-25T18:16:44.345Z,10.37
2022-09-25T18:19:38.715Z,12.20
2022-09-25T18:22:19.977Z,13.10
2022-09-25T18:24:56.442Z,13.20
2022-09-25T18:27:26.964Z,12.90
2022-09-25T18:29:54.483Z,10.90
2022-09-25T18:32:21.494Z,29.30
2022-09-25T18:34:48.366Z,25.17
2022-09-25T18:37:17.519Z,36.03
2022-09-25T18:39:49.714Z,32.50
2022-09-25T18:42:16.529Z,30.83
2022-09-25T18:44:45.162Z,25.43
2022-09-25T18:47:11.945Z,21.57
2022-09-25T18:49:38.676Z,32.17
2022-09-25T18:52:06.326Z,22.50
2022-09-25T18:54:33.080Z,21.57
2022-09-25T18:56:59.940Z,20.37
2022-09-25T18:59:27.066Z,18.97
2022-09-25T19:01:55.646Z,18.40
2022-09-25T19:04:26.779Z,20.17
2022-09-25T19:06:54.753Z,16.57
2022-09-25T19:09:27.382Z,14.07
2022-09-25T19:11:55.363Z,13.67
2022-09-25T19:14:24.586Z,13.73
2022-09-25T19:16:53.682Z,15.00
2022-09-25T19:19:21.079Z,18.03
2022-09-25T19:21:48.596Z,15.50
2022-09-25T19:24:19.941Z,16.90
2022-09-25T19:26:49.895Z,16.27
2022-09-25T19:29:16.848Z,12.50
2022-09-25T19:31:43.617Z,12.77
2022-09-25T19:34:10.883Z,13.83
2022-09-25T19:36:39.375Z,13.70
2022-09-25T19:39:07.326Z,14.70
2022-09-25T19:41:38.003Z,14.13
2022-09-25T19:44:12.755Z,9.80
2022-09-25T19:46:43.249Z,8.73
2022-09-25T19:49:11.711Z,10.93
2022-09-25T19:51:38.772Z,11.83
2022-09-25T19:54:07.437Z,14.10
2022-09-25T19:56:41.544Z,13.53
2022-09-25T19:59:15.810Z,13.10
2022-09-25T20:01:43.672Z,14.70
2022-09-25T20:04:18.026Z,13.37
2022-09-25T20:06:45.990Z,14.40
2022-09-25T20:09:14.556Z,16.10
2022-09-25T20:11:41.399Z,16.33
2022-09-25T20:14:10.022Z,13.10
2022-09-25T20:16:39.774Z,16.20
2022-09-25T20:19:07.876Z,16.70
2022-09-25T20:21:37.740Z,11.73
2022-09-25T20:24:09.379Z,11.30
2022-09-25T20:26:36.424Z,12.23
2022-09-25T20:29:12.405Z,13.67
2022-09-25T20:31:45.630Z,14.07
2022-09-25T20:34:14.744Z,10.43
2022-09-25T20:36:42.149Z,10.57
2022-09-25T20:39:09.990Z,16.50
2022-09-25T20:41:41.711Z,11.63
2022-09-25T20:44:08.780Z,14.33
2022-09-25T20:46:35.846Z,12.60
2022-09-25T20:49:03.479Z,16.13
2022-09-25T20:51:35.190Z,15.83
2022-09-25T20:54:10.060Z,15.43
2022-09-25T20:56:46.831Z,14.73
2022-09-25T20:59:16.043Z,13.43
2022-09-25T21:01:43.864Z,14.07
2022-09-25T21:04:10.877Z,10.47
2022-09-25T21:06:40.229Z,12.90
2022-09-25T21:09:20.363Z,10.77
2022-09-25T21:11:47.324Z,16.33
2022-09-25T21:14:21.529Z,12.17
2022-09-25T21:16:49.908Z,11.67
2022-09-25T21:19:18.914Z,11.40
2022-09-25T21:21:45.793Z,13.70
2022-09-25T21:24:18.849Z,10.27
2022-09-25T21:26:49.668Z,11.47
2022-09-25T21:29:20.709Z,9.87
2022-09-25T21:31:50.214Z,10.23
2022-09-25T21:34:20.039Z,10.13
2022-09-25T21:36:48.092Z,9.80
2022-09-25T21:39:15.653Z,9.33
2022-09-25T21:41:45.940Z,8.37
2022-09-25T21:44:15.639Z,11.00
2022-09-25T21:46:44.179Z,9.07
2022-09-25T21:49:21.599Z,9.83
2022-09-25T21:51:52.160Z,11.70
2022-09-25T21:54:20.755Z,9.97
2022-09-25T21:56:51.042Z,11.67
2022-09-25T21:59:18.197Z,10.03
2022-09-25T22:01:46.719Z,9.63
2022-09-25T22:04:14.253Z,11.20
2022-09-25T22:06:44.385Z,10.63
2022-09-25T22:09:16.094Z,7.47
2022-09-25T22:11:43.497Z,10.93
2022-09-25T22:14:15.353Z,11.90
2022-09-25T22:16:44.676Z,13.30
2022-09-25T22:19:13.670Z,12.23
2022-09-25T22:21:42.228Z,14.47
2022-09-25T22:24:10.257Z,12.53
2022-09-25T22:26:41.457Z,10.00
2022-09-25T22:29:08.684Z,9.47
2022-09-25T22:31:38.341Z,9.57
2022-09-25T22:34:07.202Z,11.67
2022-09-25T22:36:36.309Z,10.40
2022-09-25T22:39:05.940Z,13.43
2022-09-25T22:41:35.222Z,11.20
2022-09-25T22:44:05.875Z,9.30
2022-09-25T22:46:32.596Z,9.13
2022-09-25T22:48:59.822Z,11.47
2022-09-25T22:51:27.379Z,11.53
2022-09-25T22:53:57.798Z,9.20
2022-09-25T22:56:28.054Z,8.73
2022-09-25T22:59:06.475Z,9.83
2022-09-25T23:01:38.169Z,10.20
2022-09-25T23:04:07.977Z,8.17
2022-09-25T23:06:38.404Z,14.70
2022-09-25T23:09:14.889Z,11.40
2022-09-25T23:11:42.005Z,9.43
2022-09-25T23:14:22.145Z,10.53
2022-09-25T23:16:51.042Z,9.23
2022-09-25T23:19:20.862Z,9.40
2022-09-25T23:21:48.248Z,7.83
2022-09-25T23:24:19.951Z,11.47
2022-09-25T23:26:47.361Z,13.93
2022-09-25T23:29:16.702Z,17.63
2022-09-25T23:31:46.806Z,19.33
2022-09-25T23:34:14.906Z,16.43
2022-09-25T23:36:42.545Z,13.73
2022-09-25T23:39:14.079Z,14.43
2022-09-25T23:41:41.740Z,10.87
2022-09-25T23:44:10.906Z,11.53
2022-09-25T23:46:42.461Z,12.20
2022-09-25T23:49:10.301Z,11.90
2022-09-25T23:51:37.929Z,9.30
2022-09-25T23:54:06.358Z,8.87
2022-09-25T23:56:34.849Z,11.20
2022-09-25T23:59:07.596Z,9.83
